createdAt,value
2023-04-03T00:00:53.206Z,4.10
2023-04-03T00:03:21.128Z,4.27
2023-04-03T00:05:47.383Z,4.17
2023-04-03T00:08:13.777Z,4.20
2023-04-03T00:10:40.219Z,4.20
2023-04-03T00:13:07.948Z,4.13
2023-04-03T00:15:34.927Z,3.70
2023-04-03T00:18:01.821Z,4.00
2023-04-03T00:20:28.721Z,3.60
2023-04-03T00:22:55.426Z,3.70
2023-04-03T00:25:22.033Z,4.40
2023-04-03T00:27:48.241Z,4.00
2023-04-03T00:30:17.511Z,4.17
2023-04-03T00:32:43.928Z,4.00
2023-04-03T00:35:10.406Z,4.10
2023-04-03T00:37:37.274Z,4.60
2023-04-03T00:40:04.848Z,4.33
2023-04-03T00:42:31.350Z,4.10
2023-04-03T00:45:25.818Z,4.70
2023-04-03T00:47:52.240Z,4.20
2023-04-03T00:50:18.746Z,4.50
2023-04-03T00:52:46.777Z,4.67
2023-04-03T00:55:14.508Z,4.70
2023-04-03T00:57:41.488Z,5.23
2023-04-03T01:00:10.937Z,4.67
2023-04-03T01:02:37.270Z,4.50
2023-04-03T01:05:04.563Z,4.67
2023-04-03T01:07:33.620Z,4.17
2023-04-03T01:10:05.035Z,4.30
2023-04-03T01:12:34.433Z,4.87
2023-04-03T01:15:02.983Z,5.00
2023-04-03T01:17:31.588Z,4.87
2023-04-03T01:20:19.389Z,4.87
2023-04-03T01:22:54.683Z,5.10
2023-04-03T01:25:21.544Z,4.70
2023-04-03T01:27:47.757Z,4.63
2023-04-03T01:30:18.977Z,4.93
2023-04-03T01:32:45.968Z,5.07
2023-04-03T01:35:12.628Z,4.90
2023-04-03T01:37:38.877Z,4.90
2023-04-03T01:40:07.212Z,4.90
2023-04-03T01:42:33.394Z,4.77
2023-04-03T01:44:59.598Z,4.93
2023-04-03T01:47:25.903Z,4.80
2023-04-03T01:49:52.851Z,6.30
2023-04-03T01:52:19.093Z,5.00
2023-04-03T01:54:45.260Z,5.20
2023-04-03T01:57:12.014Z,5.53
2023-04-03T01:59:38.296Z,5.40
2023-04-03T02:02:04.467Z,5.70
2023-04-03T02:04:30.742Z,5.40
2023-04-03T02:06:57.725Z,5.60
2023-04-03T02:09:24.144Z,5.17
2023-04-03T02:11:50.425Z,5.10
2023-04-03T02:14:16.630Z,5.20
2023-04-03T02:16:42.876Z,5.53
2023-04-03T02:19:09.129Z,4.60
2023-04-03T02:21:35.357Z,4.40
2023-04-03T02:24:02.497Z,4.83
2023-04-03T02:26:28.741Z,3.97
2023-04-03T02:28:54.954Z,4.07
2023-04-03T02:31:21.320Z,4.30
2023-04-03T02:33:47.559Z,3.97
2023-04-03T02:36:13.777Z,4.00
2023-04-03T02:38:40.002Z,4.17
2023-04-03T02:41:08.491Z,4.03
2023-04-03T02:43:34.744Z,4.00
2023-04-03T02:46:00.957Z,3.83
2023-04-03T02:48:28.337Z,3.87
2023-04-03T02:50:55.638Z,3.73
2023-04-03T02:53:22.014Z,3.70
2023-04-03T02:55:48.335Z,3.30
2023-04-03T02:58:15.289Z,4.23
2023-04-03T03:00:41.933Z,4.07
2023-04-03T03:03:08.411Z,3.77
2023-04-03T03:05:34.621Z,3.70
2023-04-03T03:08:00.817Z,4.10
2023-04-03T03:10:26.986Z,4.17
2023-04-03T03:12:53.277Z,3.97
2023-04-03T03:15:20.207Z,3.93
2023-04-03T03:17:46.582Z,4.27
2023-04-03T03:20:14.444Z,4.10
2023-04-03T03:22:40.595Z,4.20
2023-04-03T03:25:07.376Z,4.47
2023-04-03T03:27:33.946Z,4.33
2023-04-03T03:30:00.215Z,4.00
2023-04-03T03:32:27.099Z,4.10
2023-04-03T03:34:53.373Z,3.70
2023-04-03T03:37:19.649Z,3.90
2023-04-03T03:39:45.936Z,4.43
2023-04-03T03:42:12.653Z,4.10
2023-04-03T03:44:38.813Z,3.90
2023-04-03T03:47:06.305Z,4.40
2023-04-03T03:49:33.346Z,4.73
2023-04-03T03:51:59.566Z,3.93
2023-04-03T03:54:25.740Z,3.50
2023-04-03T03:56:52.067Z,3.90
2023-04-03T03:59:18.437Z,3.70
2023-04-03T04:01:44.641Z,3.80
2023-04-03T04:04:10.860Z,3.80
2023-04-03T04:06:37.997Z,3.50
2023-04-03T04:09:04.516Z,3.53
2023-04-03T04:11:30.815Z,3.47
2023-04-03T04:13:56.966Z,3.90
2023-04-03T04:16:23.163Z,3.20
2023-04-03T04:18:49.575Z,3.17
2023-04-03T04:21:15.771Z,2.97
2023-04-03T04:23:42.571Z,3.70
2023-04-03T04:26:08.850Z,3.47
2023-04-03T04:28:35.177Z,3.53
2023-04-03T04:31:01.424Z,3.10
2023-04-03T04:33:27.581Z,3.23
2023-04-03T04:35:53.975Z,3.10
2023-04-03T04:38:20.259Z,3.47
2023-04-03T04:40:47.745Z,3.07
2023-04-03T04:43:14.702Z,3.00
2023-04-03T04:45:41.312Z,3.00
2023-04-03T04:48:07.892Z,3.23
2023-04-03T04:50:34.280Z,3.23
2023-04-03T04:53:00.552Z,3.57
2023-04-03T04:55:26.719Z,3.33
2023-04-03T04:57:53.510Z,4.80
2023-04-03T05:00:20.917Z,3.50
2023-04-03T05:02:47.230Z,4.07
2023-04-03T05:05:13.522Z,5.90
2023-04-03T05:07:40.600Z,4.27
2023-04-03T05:10:08.688Z,5.77
2023-04-03T05:12:34.961Z,8.03
2023-04-03T05:15:02.004Z,4.00
2023-04-03T05:17:28.169Z,2.80
2023-04-03T05:19:54.410Z,3.30
2023-04-03T05:22:20.725Z,4.17
2023-04-03T05:24:46.872Z,2.93
2023-04-03T05:27:15.617Z,3.07
2023-04-03T05:29:44.896Z,2.90
2023-04-03T05:32:12.106Z,3.00
2023-04-03T05:34:38.953Z,2.97
2023-04-03T05:37:05.577Z,2.87
2023-04-03T05:39:32.165Z,2.57
2023-04-03T05:41:58.534Z,2.43
2023-04-03T05:44:24.798Z,2.70
2023-04-03T05:46:51.105Z,3.50
2023-04-03T05:49:18.023Z,2.40
2023-04-03T05:51:45.359Z,2.70
2023-04-03T05:54:14.523Z,2.23
2023-04-03T05:56:41.130Z,2.80
2023-04-03T05:59:07.576Z,2.60
2023-04-03T06:01:35.004Z,3.03
2023-04-03T06:04:01.405Z,2.80
2023-04-03T06:06:43.853Z,2.17
2023-04-03T06:09:10.022Z,2.50
2023-04-03T06:11:36.228Z,2.57
2023-04-03T06:14:03.343Z,2.50
2023-04-03T06:16:29.671Z,2.77
2023-04-03T06:18:56.338Z,2.60
2023-04-03T06:21:22.596Z,2.37
2023-04-03T06:23:49.787Z,2.50
2023-04-03T06:26:15.946Z,2.83
2023-04-03T06:28:42.118Z,2.50
2023-04-03T06:31:09.205Z,2.10
2023-04-03T06:33:35.619Z,2.67
2023-04-03T06:36:05.067Z,2.63
2023-04-03T06:38:31.710Z,2.70
2023-04-03T06:40:59.144Z,2.63
2023-04-03T06:43:25.437Z,2.90
2023-04-03T06:45:51.769Z,3.13
2023-04-03T06:48:18.013Z,2.10
2023-04-03T06:50:44.544Z,2.50
2023-04-03T06:53:12.562Z,2.43
2023-04-03T06:55:39.056Z,2.80
2023-04-03T06:58:06.845Z,2.20
2023-04-03T07:00:33.030Z,3.20
2023-04-03T07:02:59.209Z,2.37
2023-04-03T07:05:26.285Z,2.57
2023-04-03T07:07:52.538Z,2.17
2023-04-03T07:10:19.009Z,2.27
2023-04-03T07:12:45.524Z,1.97
2023-04-03T07:15:13.091Z,2.30
2023-04-03T07:17:39.389Z,2.73
2023-04-03T07:20:07.412Z,2.30
2023-04-03T07:22:33.750Z,1.97
2023-04-03T07:25:00.212Z,2.00
2023-04-03T07:27:26.455Z,2.07
2023-04-03T07:29:53.864Z,1.90
2023-04-03T07:32:21.281Z,2.30
2023-04-03T07:34:47.567Z,1.77
2023-04-03T07:37:15.137Z,1.70
2023-04-03T07:39:45.037Z,2.00
2023-04-03T07:42:12.464Z,1.97
2023-04-03T07:44:38.747Z,1.90
2023-04-03T07:47:05.200Z,2.10
2023-04-03T07:49:33.177Z,1.90
2023-04-03T07:51:59.516Z,1.70
2023-04-03T07:54:26.060Z,1.90
2023-04-03T07:56:52.243Z,1.70
2023-04-03T07:59:18.548Z,1.70
2023-04-03T08:01:44.767Z,1.90
2023-04-03T08:04:11.251Z,1.80
2023-04-03T08:06:46.564Z,2.00
2023-04-03T08:09:14.547Z,1.93
2023-04-03T08:11:40.775Z,2.00
2023-04-03T08:14:07.288Z,1.63
2023-04-03T08:16:33.742Z,1.70
2023-04-03T08:19:00.178Z,1.70
2023-04-03T08:21:26.336Z,1.30
2023-04-03T08:23:53.253Z,1.53
2023-04-03T08:26:21.519Z,1.40
2023-04-03T08:28:47.796Z,1.27
2023-04-03T08:31:16.010Z,1.37
2023-04-03T08:33:42.410Z,1.40
2023-04-03T08:36:17.786Z,1.27
2023-04-03T08:38:43.989Z,1.53
2023-04-03T08:41:16.221Z,1.47
2023-04-03T08:43:53.177Z,1.20
2023-04-03T08:46:20.660Z,1.50
2023-04-03T08:48:47.095Z,1.17
2023-04-03T08:51:15.586Z,1.10
2023-04-03T08:53:46.434Z,1.30
2023-04-03T08:56:15.037Z,1.40
2023-04-03T08:58:44.936Z,1.50
2023-04-03T09:01:18.423Z,1.57
2023-04-03T09:03:44.721Z,1.60
2023-04-03T09:06:14.941Z,1.60
2023-04-03T09:08:44.641Z,1.80
2023-04-03T09:11:17.207Z,1.23
2023-04-03T09:13:50.502Z,1.23
2023-04-03T09:16:22.333Z,1.20
2023-04-03T09:18:53.166Z,1.60
2023-04-03T09:21:21.860Z,1.20
2023-04-03T09:23:50.463Z,1.53
2023-04-03T09:26:19.478Z,1.30
2023-04-03T09:28:49.818Z,1.13
2023-04-03T09:31:22.831Z,1.57
2023-04-03T09:33:51.376Z,1.47
2023-04-03T09:36:39.200Z,1.23
2023-04-03T09:39:06.578Z,1.20
2023-04-03T09:41:33.530Z,1.20
2023-04-03T09:44:00.195Z,1.37
2023-04-03T09:46:31.319Z,1.83
2023-04-03T09:49:07.975Z,1.37
2023-04-03T09:51:34.915Z,1.40
2023-04-03T09:54:01.205Z,1.80
2023-04-03T09:56:29.168Z,1.40
2023-04-03T09:59:13.020Z,1.50
2023-04-03T10:01:40.821Z,1.50
2023-04-03T10:04:09.840Z,1.30
2023-04-03T10:06:37.884Z,1.20
2023-04-03T10:09:07.028Z,1.20
2023-04-03T10:11:34.036Z,1.40
2023-04-03T10:14:01.307Z,1.40
2023-04-03T10:16:34.112Z,1.27
2023-04-03T10:19:30.748Z,1.20
2023-04-03T10:22:00.692Z,1.37
2023-04-03T10:24:36.368Z,1.10
2023-04-03T10:27:07.028Z,0.90
2023-04-03T10:29:39.910Z,0.90
2023-04-03T10:32:21.633Z,0.93
2023-04-03T10:34:58.484Z,1.10
2023-04-03T10:37:37.583Z,1.20
2023-04-03T10:40:11.192Z,0.90
2023-04-03T10:42:41.831Z,1.00
2023-04-03T10:45:18.932Z,0.93
2023-04-03T10:47:55.170Z,0.90
2023-04-03T10:50:32.542Z,1.00
2023-04-03T10:53:03.843Z,0.90
2023-04-03T10:55:35.713Z,1.07
2023-04-03T10:58:03.525Z,1.07
2023-04-03T11:00:37.379Z,1.27
2023-04-03T11:03:08.748Z,0.90
2023-04-03T11:05:37.782Z,1.10
2023-04-03T11:08:10.598Z,0.90
2023-04-03T11:10:41.400Z,0.83
2023-04-03T11:13:12.912Z,1.03
2023-04-03T11:15:39.572Z,0.90
2023-04-03T11:18:11.758Z,0.90
2023-04-03T11:20:40.112Z,1.00
2023-04-03T11:23:10.085Z,0.97
2023-04-03T11:25:38.360Z,0.87
2023-04-03T11:28:06.618Z,1.03
2023-04-03T11:30:35.918Z,1.00
2023-04-03T11:33:25.890Z,0.90
2023-04-03T11:35:54.312Z,0.80
2023-04-03T11:38:24.846Z,0.97
2023-04-03T11:40:51.396Z,1.00
2023-04-03T11:43:23.404Z,0.87
2023-04-03T11:45:59.556Z,0.90
2023-04-03T11:48:49.652Z,0.83
2023-04-03T11:51:43.004Z,0.80
2023-04-03T11:54:47.849Z,0.80
2023-04-03T11:57:45.398Z,0.80
2023-04-03T12:00:50.148Z,0.90
2023-04-03T12:04:06.486Z,1.00
2023-04-03T12:06:55.368Z,0.90
2023-04-03T12:09:35.100Z,0.90
2023-04-03T12:12:26.558Z,0.80
2023-04-03T12:14:52.855Z,0.80
2023-04-03T12:17:24.401Z,1.00
2023-04-03T12:19:51.509Z,0.90
2023-04-03T12:22:20.740Z,0.70
2023-04-03T12:24:49.484Z,0.80
2023-04-03T12:27:24.482Z,0.70
2023-04-03T12:29:57.189Z,0.60
2023-04-03T12:32:42.829Z,1.00
2023-04-03T12:35:20.887Z,1.50
2023-04-03T12:38:03.015Z,0.90
2023-04-03T12:40:32.368Z,0.90
2023-04-03T12:43:08.361Z,1.07
2023-04-03T12:45:43.389Z,1.10
2023-04-03T12:48:15.011Z,1.00
2023-04-03T12:50:42.420Z,0.90
2023-04-03T12:53:13.524Z,1.20
2023-04-03T12:55:40.020Z,0.90
2023-04-03T12:58:17.968Z,1.07
2023-04-03T13:00:44.336Z,1.00
2023-04-03T13:03:23.026Z,1.00
2023-04-03T13:05:50.371Z,0.93
2023-04-03T13:08:17.399Z,0.90
2023-04-03T13:10:50.710Z,1.00
2023-04-03T13:13:16.895Z,1.50
2023-04-03T13:15:46.079Z,0.90
2023-04-03T13:18:26.539Z,1.00
2023-04-03T13:20:55.475Z,0.93
2023-04-03T13:23:23.051Z,1.40
2023-04-03T13:25:49.717Z,0.90
2023-04-03T13:28:18.418Z,0.83
2023-04-03T13:31:01.950Z,1.10
2023-04-03T13:33:31.689Z,1.10
2023-04-03T13:36:01.573Z,1.10
2023-04-03T13:38:31.586Z,1.07
2023-04-03T13:41:00.813Z,1.10
2023-04-03T13:43:30.497Z,1.27
2023-04-03T13:46:05.389Z,1.33
2023-04-03T13:48:39.715Z,1.40
2023-04-03T13:51:17.163Z,1.20
2023-04-03T13:53:45.557Z,1.23
2023-04-03T13:56:21.299Z,1.30
2023-04-03T13:59:03.814Z,1.20
2023-04-03T14:01:42.338Z,1.27
2023-04-03T14:04:15.915Z,1.00
2023-04-03T14:06:42.895Z,1.30
2023-04-03T14:09:09.388Z,1.30
2023-04-03T14:11:36.109Z,1.20
2023-04-03T14:14:06.725Z,1.40
2023-04-03T14:16:38.726Z,1.10
2023-04-03T14:19:05.308Z,1.00
2023-04-03T14:21:32.605Z,1.13
2023-04-03T14:24:00.743Z,1.20
2023-04-03T14:26:30.584Z,1.20
2023-04-03T14:28:56.896Z,1.00
2023-04-03T14:31:23.398Z,1.20
2023-04-03T14:33:50.099Z,1.00
2023-04-03T14:36:18.279Z,1.17
2023-04-03T14:38:46.759Z,1.30
2023-04-03T14:41:16.676Z,1.30
2023-04-03T14:43:44.251Z,1.03
2023-04-03T14:46:13.785Z,1.23
2023-04-03T14:48:40.192Z,0.90
2023-04-03T14:51:06.401Z,1.03
2023-04-03T14:53:38.794Z,1.20
2023-04-03T14:56:11.986Z,1.03
2023-04-03T14:58:38.875Z,1.20
2023-04-03T15:01:05.273Z,1.10
2023-04-03T15:03:32.299Z,1.00
2023-04-03T15:05:59.487Z,1.30
2023-04-03T15:08:27.024Z,1.07
2023-04-03T15:10:55.839Z,1.20
2023-04-03T15:13:22.501Z,1.60
2023-04-03T15:15:49.787Z,1.20
2023-04-03T15:18:18.352Z,1.00
2023-04-03T15:20:44.746Z,0.93
2023-04-03T15:23:12.672Z,1.10
2023-04-03T15:25:39.635Z,1.00
2023-04-03T15:28:06.355Z,1.20
2023-04-03T15:30:41.645Z,0.97
2023-04-03T15:33:08.630Z,1.33
2023-04-03T15:35:34.939Z,1.30
2023-04-03T15:38:01.115Z,1.13
2023-04-03T15:40:27.336Z,1.40
2023-04-03T15:42:54.456Z,1.40
2023-04-03T15:45:21.399Z,1.70
2023-04-03T15:47:47.560Z,1.20
2023-04-03T15:50:14.411Z,1.23
2023-04-03T15:52:40.636Z,1.10
2023-04-03T15:55:07.071Z,1.20
2023-04-03T16:00:06.155Z,1.10
2023-04-03T16:02:33.183Z,1.30
2023-04-03T16:04:59.810Z,1.23
2023-04-03T16:07:26.766Z,1.67
2023-04-03T16:09:53.041Z,1.30
2023-04-03T16:12:19.304Z,1.30
2023-04-03T16:14:45.581Z,1.37
2023-04-03T16:17:11.821Z,1.10
2023-04-03T16:19:38.183Z,1.53
2023-04-03T16:22:04.390Z,1.10
2023-04-03T16:24:32.347Z,1.00
2023-04-03T16:26:58.832Z,1.20
2023-04-03T16:29:25.361Z,1.13
2023-04-03T16:31:52.228Z,1.33
2023-04-03T16:34:18.506Z,1.20
2023-04-03T16:36:44.759Z,1.40
2023-04-03T16:39:11.114Z,1.17
2023-04-03T16:41:40.124Z,1.30
2023-04-03T16:44:07.550Z,1.10
2023-04-03T16:46:33.750Z,1.27
2023-04-03T16:48:59.984Z,1.40
2023-04-03T16:51:26.467Z,1.00
2023-04-03T16:53:53.458Z,1.00
2023-04-03T16:56:19.913Z,1.17
2023-04-03T16:58:46.978Z,1.17
2023-04-03T17:01:14.669Z,1.23
2023-04-03T17:03:41.106Z,1.20
2023-04-03T17:06:07.480Z,1.30
2023-04-03T17:08:34.650Z,1.03
2023-04-03T17:11:00.859Z,1.50
2023-04-03T17:13:31.361Z,1.03
2023-04-03T17:15:58.607Z,1.27
2023-04-03T17:18:25.760Z,1.20
2023-04-03T17:20:51.990Z,1.43
2023-04-03T17:23:18.275Z,1.47
2023-04-03T17:25:44.541Z,1.63
2023-04-03T17:28:10.705Z,1.60
2023-04-03T17:30:36.948Z,1.30
2023-04-03T17:33:04.063Z,1.50
2023-04-03T17:35:30.630Z,1.47
2023-04-03T17:37:56.894Z,1.20
2023-04-03T17:40:23.142Z,1.53
2023-04-03T17:42:49.562Z,1.50
2023-04-03T17:45:15.892Z,1.30
2023-04-03T17:47:42.255Z,1.17
2023-04-03T17:50:09.779Z,1.10
2023-04-03T17:52:36.030Z,1.30
2023-04-03T17:55:02.782Z,1.20
2023-04-03T17:57:30.816Z,1.20
2023-04-03T17:59:57.273Z,1.30
2023-04-03T18:02:23.459Z,1.17
2023-04-03T18:04:51.369Z,1.27
2023-04-03T18:07:21.239Z,1.30
2023-04-03T18:09:47.934Z,1.20
2023-04-03T18:12:14.566Z,1.07
2023-04-03T18:14:41.006Z,1.47
2023-04-03T18:17:07.819Z,1.33
2023-04-03T18:19:34.325Z,1.53
2023-04-03T18:22:03.263Z,1.70
2023-04-03T18:24:32.283Z,1.57
2023-04-03T18:27:00.197Z,1.43
2023-04-03T18:29:27.949Z,1.30
2023-04-03T18:31:55.575Z,1.50
2023-04-03T18:34:21.839Z,1.60
2023-04-03T18:36:48.648Z,1.20
2023-04-03T18:39:14.925Z,1.33
2023-04-03T18:41:42.442Z,1.50
2023-04-03T18:44:12.327Z,1.30
2023-04-03T18:49:10.987Z,1.30
2023-04-03T18:51:38.494Z,1.50
2023-04-03T18:54:05.294Z,1.37
2023-04-03T18:56:31.694Z,1.50
2023-04-03T18:58:58.597Z,1.50
2023-04-03T19:01:24.983Z,1.50
2023-04-03T19:03:51.154Z,1.50
2023-04-03T19:06:18.656Z,1.77
2023-04-03T19:08:45.440Z,1.37
2023-04-03T19:11:11.571Z,1.60
2023-04-03T19:13:46.568Z,1.60
2023-04-03T19:16:25.113Z,2.00
2023-04-03T19:18:51.696Z,1.77
2023-04-03T19:21:18.370Z,2.07
2023-04-03T19:23:44.692Z,2.07
2023-04-03T19:26:12.652Z,2.07
2023-04-03T19:28:39.463Z,1.90
2023-04-03T19:31:11.114Z,2.03
2023-04-03T19:33:40.691Z,2.00
2023-04-03T19:36:07.700Z,1.90
2023-04-03T19:38:33.943Z,1.80
2023-04-03T19:41:00.228Z,1.73
2023-04-03T19:43:26.504Z,1.80
2023-04-03T19:45:52.694Z,1.50
2023-04-03T19:48:18.965Z,1.47
2023-04-03T19:50:46.064Z,1.70
2023-04-03T19:53:17.850Z,1.77
2023-04-03T19:55:45.388Z,1.60
2023-04-03T19:58:11.905Z,1.83
2023-04-03T20:00:38.314Z,1.50
2023-04-03T20:03:05.510Z,1.67
2023-04-03T20:05:32.486Z,1.50
2023-04-03T20:07:59.375Z,1.60
2023-04-03T20:10:25.619Z,1.60
2023-04-03T20:12:51.916Z,1.60
2023-04-03T20:15:18.581Z,1.30
2023-04-03T20:17:44.925Z,1.10
2023-04-03T20:20:11.824Z,1.53
2023-04-03T20:22:39.155Z,1.57
2023-04-03T20:25:08.781Z,1.50
2023-04-03T20:27:36.241Z,1.67
2023-04-03T20:30:03.944Z,1.40
2023-04-03T20:32:31.189Z,1.40
2023-04-03T20:35:03.372Z,1.53
2023-04-03T20:37:30.725Z,1.40
2023-04-03T20:39:56.917Z,1.60
2023-04-03T20:42:23.793Z,1.53
2023-04-03T20:44:50.184Z,1.47
2023-04-03T20:47:16.703Z,1.70
2023-04-03T20:49:44.265Z,1.90
2023-04-03T20:52:11.049Z,1.50
2023-04-03T20:54:37.555Z,1.70
2023-04-03T20:57:03.884Z,1.40
2023-04-03T20:59:30.950Z,1.33
2023-04-03T21:01:57.574Z,1.70
2023-04-03T21:04:29.662Z,1.73
2023-04-03T21:07:33.216Z,1.70
2023-04-03T21:10:37.062Z,1.50
2023-04-03T21:13:41.525Z,1.77
2023-04-03T21:16:08.019Z,1.50
2023-04-03T21:19:01.332Z,1.60
2023-04-03T21:21:28.277Z,1.67
2023-04-03T21:23:55.079Z,1.57
2023-04-03T21:26:22.225Z,1.63
2023-04-03T21:28:50.531Z,1.73
2023-04-03T21:31:16.760Z,1.57
2023-04-03T21:33:44.284Z,1.50
2023-04-03T21:36:10.451Z,1.57
2023-04-03T21:38:36.701Z,1.53
2023-04-03T21:41:03.090Z,2.03
2023-04-03T21:43:29.568Z,1.60
2023-04-03T21:45:56.376Z,1.30
2023-04-03T21:48:23.702Z,1.60
2023-04-03T21:50:52.839Z,1.77
2023-04-03T21:53:19.756Z,1.70
2023-04-03T21:55:52.838Z,1.60
2023-04-03T21:58:19.277Z,1.50
2023-04-03T22:00:45.783Z,1.83
2023-04-03T22:03:12.738Z,1.47
2023-04-03T22:05:38.996Z,1.47
2023-04-03T22:08:06.384Z,1.60
2023-04-03T22:10:32.818Z,1.40
2023-04-03T22:12:58.938Z,1.70
2023-04-03T22:15:25.269Z,1.70
2023-04-03T22:17:51.477Z,1.20
2023-04-03T22:20:17.725Z,1.43
2023-04-03T22:22:43.878Z,1.50
2023-04-03T22:25:10.923Z,1.73
2023-04-03T22:27:37.069Z,1.60
2023-04-03T22:30:03.603Z,1.60
2023-04-03T22:32:29.777Z,1.67
2023-04-03T22:34:56.053Z,1.90
2023-04-03T22:37:22.246Z,1.60
2023-04-03T22:39:48.480Z,1.83
2023-04-03T22:42:17.919Z,1.90
2023-04-03T22:44:44.091Z,1.83
2023-04-03T22:47:10.539Z,1.60
2023-04-03T22:49:37.520Z,1.53
2023-04-03T22:52:04.189Z,1.60
2023-04-03T22:54:30.461Z,1.67
2023-04-03T22:56:57.250Z,1.70
2023-04-03T22:59:24.205Z,1.80
2023-04-03T23:01:50.433Z,1.97
2023-04-03T23:04:16.778Z,1.73
2023-04-03T23:06:43.064Z,1.60
2023-04-03T23:09:09.213Z,1.30
2023-04-03T23:11:35.388Z,1.67
2023-04-03T23:14:02.333Z,1.70
2023-04-03T23:16:29.245Z,1.57
2023-04-03T23:18:55.583Z,1.50
2023-04-03T23:21:22.300Z,1.77
2023-04-03T23:23:48.626Z,2.10
2023-04-03T23:26:14.857Z,1.50
2023-04-03T23:28:41.166Z,1.83
2023-04-03T23:31:09.345Z,1.87
2023-04-03T23:33:37.626Z,1.60
2023-04-03T23:36:06.816Z,1.90
2023-04-03T23:38:33.290Z,1.87
2023-04-03T23:40:59.504Z,1.83
2023-04-03T23:43:26.105Z,1.70
2023-04-03T23:45:52.303Z,1.60
2023-04-03T23:48:18.604Z,1.67
2023-04-03T23:50:45.479Z,1.93
2023-04-03T23:53:12.639Z,1.90
2023-04-03T23:55:38.862Z,1.60
2023-04-03T23:58:05.016Z,1.93
